createdAt,value
2019-05-02T00:02:23.987Z,6.92
2019-05-02T00:06:25.622Z,7.62
2019-05-02T00:10:29.746Z,7.22
2019-05-02T00:14:33.199Z,6.75
2019-05-02T00:18:38.998Z,7.25
2019-05-02T00:22:42.725Z,7.30
2019-05-02T00:26:46.443Z,4.78
2019-05-02T00:30:49.888Z,6.85
2019-05-02T00:34:53.330Z,7.67
2019-05-02T00:38:56.785Z,6.67
2019-05-02T00:43:00.221Z,6.92
2019-05-02T00:47:06.021Z,5.85
2019-05-02T00:51:10.542Z,6.10
2019-05-02T00:55:14.059Z,6.80
2019-05-02T00:59:17.511Z,5.15
2019-05-02T01:03:22.082Z,6.05
2019-05-02T01:07:26.922Z,5.17
2019-05-02T01:11:32.219Z,6.12
2019-05-02T01:15:39.198Z,5.70
2019-05-02T01:19:41.058Z,6.03
2019-05-02T01:23:44.514Z,5.90
2019-05-02T01:28:12.608Z,6.86
2019-05-02T01:32:14.826Z,6.95
2019-05-02T01:36:36.701Z,6.25
2019-05-02T01:40:40.277Z,6.12
2019-05-02T01:44:43.739Z,5.90
2019-05-02T01:48:47.801Z,7.28
2019-05-02T01:52:53.722Z,6.28
2019-05-02T01:56:56.598Z,6.57
2019-05-02T02:01:00.378Z,6.90
2019-05-02T02:05:07.248Z,7.00
2019-05-02T02:09:10.731Z,7.42
2019-05-02T02:13:14.492Z,7.25
2019-05-02T02:17:17.937Z,7.42
2019-05-02T02:21:38.514Z,8.38
2019-05-02T02:26:00.175Z,6.57
2019-05-02T02:30:05.699Z,7.35
2019-05-02T02:34:09.142Z,8.03
2019-05-02T02:38:12.915Z,8.00
2019-05-02T02:42:16.350Z,8.18
2019-05-02T02:46:30.715Z,7.00
2019-05-02T02:50:36.595Z,8.73
2019-05-02T02:54:43.450Z,9.30
2019-05-02T02:58:47.913Z,8.63
2019-05-02T03:02:48.452Z,8.45
2019-05-02T03:06:53.755Z,8.13
2019-05-02T03:10:57.673Z,8.83
2019-05-02T03:15:02.776Z,8.37
2019-05-02T03:19:06.373Z,7.57
2019-05-02T03:23:15.057Z,8.83
2019-05-02T03:27:15.294Z,9.67
2019-05-02T03:31:25.820Z,8.68
2019-05-02T03:35:40.491Z,9.53
2019-05-02T03:39:29.907Z,8.70
2019-05-02T03:43:33.337Z,8.60
2019-05-02T03:47:43.671Z,10.50
2019-05-02T03:51:41.980Z,9.40
2019-05-02T03:55:45.438Z,9.65
2019-05-02T03:59:48.951Z,11.68
2019-05-02T04:03:53.328Z,8.88
2019-05-02T04:07:57.185Z,10.83
2019-05-02T04:12:01.619Z,11.47
2019-05-02T04:16:14.818Z,10.30
2019-05-02T04:20:12.657Z,11.20
2019-05-02T04:24:16.311Z,8.97
2019-05-02T04:28:21.847Z,13.10
2019-05-02T04:32:25.292Z,13.38
2019-05-02T04:36:28.776Z,12.18
2019-05-02T04:40:35.139Z,13.48
2019-05-02T04:44:41.100Z,15.23
2019-05-02T04:48:48.529Z,15.37
2019-05-02T04:52:53.593Z,11.80
2019-05-02T04:56:55.474Z,15.17
2019-05-02T05:01:01.713Z,16.73
2019-05-02T05:05:05.362Z,15.27
2019-05-02T05:09:10.445Z,16.43
2019-05-02T05:13:19.864Z,16.00
2019-05-02T05:17:20.001Z,16.90
2019-05-02T05:21:24.653Z,16.55
2019-05-02T05:25:33.199Z,14.03
2019-05-02T05:29:37.488Z,17.48
2019-05-02T05:33:41.038Z,14.05
2019-05-02T05:37:49.115Z,16.93
2019-05-02T05:41:52.323Z,17.87
2019-05-02T05:46:06.102Z,16.63
2019-05-02T05:50:01.163Z,17.10
2019-05-02T05:54:05.234Z,14.07
2019-05-02T05:58:15.318Z,16.82
2019-05-02T06:02:14.783Z,15.40
2019-05-02T06:06:22.791Z,17.53
2019-05-02T06:10:23.525Z,17.17
2019-05-02T06:14:27.259Z,19.35
2019-05-02T06:18:30.727Z,13.10
2019-05-02T06:22:34.478Z,18.60
2019-05-02T06:26:37.933Z,17.48
2019-05-02T06:30:41.395Z,16.95
2019-05-02T06:34:46.613Z,17.10
2019-05-02T06:38:52.102Z,18.70
2019-05-02T06:42:55.502Z,16.37
2019-05-02T06:47:03.720Z,18.45
2019-05-02T06:51:04.188Z,17.60
2019-05-02T06:55:08.194Z,13.30
2019-05-02T06:59:13.125Z,19.32
2019-05-02T07:03:16.956Z,13.90
2019-05-02T07:07:24.951Z,13.80
2019-05-02T07:11:26.226Z,11.90
2019-05-02T07:15:48.448Z,13.98
2019-05-02T07:19:53.272Z,14.70
2019-05-02T07:23:56.724Z,17.40
2019-05-02T07:28:00.180Z,16.93
2019-05-02T07:32:03.689Z,14.28
2019-05-02T07:36:07.429Z,16.47
2019-05-02T07:40:12.010Z,15.18
2019-05-02T07:44:17.010Z,10.48
2019-05-02T07:48:20.466Z,16.85
2019-05-02T07:52:23.906Z,14.93
2019-05-02T07:56:27.358Z,17.65
2019-05-02T08:00:32.045Z,8.75
2019-05-02T08:04:36.584Z,11.08
2019-05-02T08:08:40.042Z,13.15
2019-05-02T08:12:43.565Z,17.40
2019-05-02T08:17:05.519Z,12.43
2019-05-02T08:21:01.382Z,11.53
2019-05-02T08:25:10.905Z,9.60
2019-05-02T08:29:15.490Z,14.90
2019-05-02T08:33:18.930Z,12.88
2019-05-02T08:37:22.373Z,14.45
2019-05-02T08:41:25.834Z,13.03
2019-05-02T08:45:33.106Z,12.85
2019-05-02T08:49:34.781Z,15.50
2019-05-02T08:53:38.223Z,14.55
2019-05-02T08:57:41.673Z,15.25
2019-05-02T09:01:49.492Z,12.40
2019-05-02T09:05:50.623Z,18.57
2019-05-02T09:09:55.605Z,18.55
2019-05-02T09:13:59.193Z,19.67
2019-05-02T09:18:02.924Z,19.92
2019-05-02T09:22:07.592Z,20.23
2019-05-02T09:26:12.025Z,20.65
2019-05-02T09:30:17.200Z,20.75
2019-05-02T09:34:22.870Z,19.62
2019-05-02T09:38:26.474Z,17.60
2019-05-02T09:42:32.363Z,19.15
2019-05-02T09:50:38.576Z,17.32
2019-05-02T09:54:45.998Z,18.23
2019-05-02T09:58:49.404Z,19.48
2019-05-02T10:02:53.077Z,20.70
2019-05-02T10:06:56.865Z,14.00
2019-05-02T10:11:02.480Z,22.80
2019-05-02T10:15:08.382Z,17.27
2019-05-02T10:19:13.529Z,21.90
2019-05-02T10:27:21.747Z,20.57
2019-05-02T10:31:27.476Z,23.42
2019-05-02T10:35:38.885Z,13.63
2019-05-02T10:39:38.032Z,20.57
2019-05-02T10:43:42.444Z,14.78
2019-05-02T10:47:46.289Z,24.37
2019-05-02T10:51:51.864Z,24.45
2019-05-02T10:55:56.602Z,26.40
2019-05-02T11:00:00.051Z,23.87
2019-05-02T11:04:05.150Z,25.68
2019-05-02T11:08:08.630Z,21.33
2019-05-02T11:12:16.539Z,22.37
2019-05-02T11:16:38.089Z,20.17
2019-05-02T11:20:42.112Z,20.30
2019-05-02T11:24:45.770Z,18.27
2019-05-02T11:28:49.227Z,20.35
2019-05-02T11:32:52.690Z,23.42
2019-05-02T11:36:56.146Z,23.52
2019-05-02T11:40:59.598Z,20.62
2019-05-02T11:45:03.497Z,21.85
2019-05-02T11:49:06.940Z,21.35
2019-05-02T11:53:23.209Z,20.82
2019-05-02T11:57:15.839Z,22.47
2019-05-02T12:01:25.706Z,12.98
2019-05-02T12:05:26.587Z,12.73
2019-05-02T12:09:31.954Z,13.72
2019-05-02T12:13:35.910Z,20.57
2019-05-02T12:17:39.445Z,15.78
2019-05-02T12:21:46.314Z,19.82
2019-05-02T12:25:51.850Z,19.25
2019-05-02T12:29:57.901Z,20.50
2019-05-02T12:34:02.634Z,16.27
2019-05-02T12:42:09.348Z,15.80
2019-05-02T12:46:13.179Z,14.93
2019-05-02T12:50:16.770Z,15.77
2019-05-02T12:54:21.926Z,16.80
2019-05-02T12:58:25.797Z,17.75
2019-05-02T13:02:33.569Z,15.03
2019-05-02T13:06:37.474Z,18.77
2019-05-02T13:11:06.175Z,18.87
2019-05-02T13:15:07.867Z,17.30
2019-05-02T13:19:11.963Z,15.23
2019-05-02T13:23:17.261Z,16.47
2019-05-02T13:27:22.824Z,15.27
2019-05-02T13:31:28.021Z,14.70
2019-05-02T13:35:42.137Z,14.95
2019-05-02T13:39:47.750Z,15.72
2019-05-02T13:43:52.607Z,15.93
2019-05-02T13:47:56.123Z,15.60
2019-05-02T13:51:59.917Z,10.97
2019-05-02T13:56:05.011Z,15.67
2019-05-02T14:00:09.942Z,14.15
2019-05-02T14:04:15.011Z,16.10
2019-05-02T14:08:27.581Z,15.55
2019-05-02T14:12:45.187Z,15.80
2019-05-02T14:16:48.922Z,15.68
2019-05-02T14:20:52.781Z,13.20
2019-05-02T14:24:56.414Z,13.00
2019-05-02T14:28:59.860Z,16.70
2019-05-02T14:33:04.959Z,16.35
2019-05-02T14:37:08.402Z,13.37
2019-05-02T14:41:13.627Z,16.77
2019-05-02T14:45:27.402Z,14.53
2019-05-02T14:49:25.541Z,18.57
2019-05-02T14:53:28.082Z,18.73
2019-05-02T14:57:32.639Z,16.75
2019-05-02T15:01:36.345Z,21.48
2019-05-02T15:05:39.809Z,19.45
2019-05-02T15:09:43.260Z,18.85
2019-05-02T15:13:46.713Z,19.42
2019-05-02T15:17:50.167Z,15.93
2019-05-02T15:21:55.932Z,14.73
2019-05-02T15:25:59.078Z,19.87
2019-05-02T15:30:06.772Z,19.13
2019-05-02T15:34:22.786Z,12.88
2019-05-02T15:38:28.217Z,19.20
2019-05-02T15:42:32.286Z,19.23
2019-05-02T15:46:35.915Z,19.73
2019-05-02T15:50:48.817Z,19.10
2019-05-02T15:54:44.922Z,20.73
2019-05-02T15:58:48.392Z,19.67
2019-05-02T16:02:52.027Z,21.00
2019-05-02T16:07:00.374Z,18.97
2019-05-02T16:11:02.976Z,19.40
2019-05-02T16:15:13.175Z,19.67
2019-05-02T16:19:14.992Z,21.12
2019-05-02T16:23:18.987Z,19.10
2019-05-02T16:27:26.765Z,20.43
2019-05-02T16:31:31.566Z,20.33
2019-05-02T16:35:36.166Z,16.48
2019-05-02T16:39:42.648Z,18.65
2019-05-02T16:43:45.106Z,14.13
2019-05-02T16:47:49.849Z,19.25
2019-05-02T16:51:57.419Z,12.97
2019-05-02T16:56:05.468Z,18.70
2019-05-02T17:00:07.568Z,19.13
2019-05-02T17:04:12.784Z,20.25
2019-05-02T17:08:22.527Z,19.27
2019-05-02T17:12:26.452Z,17.48
2019-05-02T17:16:31.581Z,7.28
2019-05-02T17:20:35.310Z,8.63
2019-05-02T17:24:38.768Z,10.00
2019-05-02T17:28:46.828Z,9.88
2019-05-02T17:32:47.649Z,10.15
2019-05-02T17:36:51.922Z,10.70
2019-05-02T17:40:59.409Z,10.30
2019-05-02T17:45:03.688Z,9.50
2019-05-02T17:49:05.990Z,10.80
2019-05-02T17:53:11.513Z,9.50
2019-05-02T17:57:15.165Z,9.50
2019-05-02T18:01:26.459Z,10.20
2019-05-02T18:05:32.001Z,9.40
2019-05-02T18:13:39.043Z,6.42
2019-05-02T18:17:42.846Z,5.87
2019-05-02T18:21:46.601Z,4.95
2019-05-02T18:25:52.419Z,4.62
2019-05-02T18:29:55.756Z,3.75
2019-05-02T18:34:01.715Z,3.60
2019-05-02T18:42:08.195Z,3.33
2019-05-02T18:46:12.781Z,2.92
2019-05-02T18:50:44.405Z,2.63
2019-05-02T18:54:44.024Z,2.25
2019-05-02T18:58:47.781Z,2.27
2019-05-02T19:02:54.585Z,2.30
2019-05-02T19:06:57.251Z,1.95
2019-05-02T19:11:08.960Z,2.05
2019-05-02T19:19:22.461Z,1.67
2019-05-02T19:23:25.959Z,1.65
2019-05-02T19:27:42.810Z,1.98
2019-05-02T19:35:52.419Z,2.25
2019-05-02T19:39:56.847Z,1.83
2019-05-02T19:44:02.212Z,2.07
2019-05-02T19:48:05.502Z,2.40
2019-05-02T19:52:12.713Z,2.00
2019-05-02T20:01:26.344Z,1.87
2019-05-02T20:05:27.400Z,1.90
2019-05-02T20:09:31.883Z,2.25
2019-05-02T20:13:35.469Z,2.30
2019-05-02T20:17:39.196Z,2.40
2019-05-02T20:21:46.928Z,2.83
2019-05-02T20:25:52.309Z,1.98
2019-05-02T20:33:58.852Z,2.50
2019-05-02T20:38:04.009Z,2.52
2019-05-02T20:42:07.710Z,3.37
2019-05-02T20:46:12.137Z,2.45
2019-05-02T20:50:15.801Z,2.08
2019-05-02T20:54:20.069Z,2.70
2019-05-02T20:58:23.582Z,2.45
2019-05-02T21:02:27.346Z,3.52
2019-05-02T21:06:40.904Z,3.15
2019-05-02T21:10:39.477Z,2.65
2019-05-02T21:14:42.925Z,2.95
2019-05-02T21:18:46.445Z,3.05
2019-05-02T21:22:50.170Z,2.50
2019-05-02T21:26:53.926Z,2.70
2019-05-02T21:30:57.763Z,3.50
2019-05-02T21:35:02.799Z,3.43
2019-05-02T21:39:13.815Z,2.30
2019-05-02T21:43:17.577Z,2.47
2019-05-02T21:47:22.563Z,2.60
2019-05-02T21:51:39.961Z,2.53
2019-05-02T21:55:47.753Z,3.00
2019-05-02T21:59:52.687Z,2.75
2019-05-02T22:03:56.301Z,2.00
2019-05-02T22:07:59.733Z,1.70
2019-05-02T22:12:03.164Z,2.15
2019-05-02T22:16:06.858Z,2.12
2019-05-02T22:20:12.246Z,1.82
2019-05-02T22:24:15.519Z,2.67
2019-05-02T22:28:18.950Z,1.62
2019-05-02T22:32:22.656Z,2.20
2019-05-02T22:36:26.114Z,2.45
2019-05-02T22:40:29.841Z,1.95
2019-05-02T22:44:33.325Z,1.87
2019-05-02T22:48:36.761Z,1.65
2019-05-02T22:52:41.652Z,2.00
2019-05-02T22:56:45.201Z,1.62
2019-05-02T23:00:48.920Z,2.20
2019-05-02T23:04:52.798Z,1.80
2019-05-02T23:08:56.649Z,1.67
2019-05-02T23:13:00.089Z,1.62
2019-05-02T23:17:03.540Z,1.32
2019-05-02T23:21:06.976Z,1.67
2019-05-02T23:25:29.330Z,1.67
2019-05-02T23:29:32.769Z,1.45
2019-05-02T23:33:54.486Z,1.30
2019-05-02T23:37:58.297Z,1.72
2019-05-02T23:42:02.075Z,1.65
2019-05-02T23:46:05.822Z,1.67
2019-05-02T23:50:12.196Z,1.90
2019-05-02T23:54:16.102Z,2.35
2019-05-02T23:58:19.539Z,1.98
